Time;durP1;ratioP1;P1;durP2;ratioP2;P2;SDS_P1;SDS_P2;PMS_P1;PMS_P2;Temp;Humidity;BMP_temperature;BMP_pressure;BME280_temperature;BME280_humidity;BME280_pressure;Samples;Min_cycle;Max_cycle;Signal;HPM_P1;HPM_P2
2023/09/25 00:01:51;;;;;;;1999.90;999.90;;;;;;;8.81;100.00;95725.28;5064706;28;20249;-49
2023/09/25 00:04:16;;;;;;;1999.90;999.90;;;;;;;8.78;100.00;95715.97;5063966;28;20233;-50
2023/09/25 00:06:42;;;;;;;1999.90;999.90;;;;;;;8.74;100.00;95708.97;5063937;28;20170;-51
2023/09/25 00:09:07;;;;;;;1999.90;999.90;;;;;;;8.67;100.00;95696.09;5064386;28;20166;-50
2023/09/25 00:11:32;;;;;;;1999.90;999.90;;;;;;;8.69;100.00;95691.03;5064165;28;20248;-52
2023/09/25 00:13:58;;;;;;;1999.90;999.90;;;;;;;8.65;100.00;95673.13;5063864;28;20166;-48
2023/09/25 00:16:23;;;;;;;1999.90;999.90;;;;;;;8.63;100.00;95670.78;5064309;28;20174;-50
2023/09/25 00:18:49;;;;;;;1999.90;999.90;;;;;;;8.58;100.00;95665.72;5064300;28;20169;-52
2023/09/25 00:21:14;;;;;;;1999.90;999.90;;;;;;;8.53;100.00;95659.88;5063614;28;20220;-52
2023/09/25 00:23:40;;;;;;;1999.90;999.90;;;;;;;8.50;100.00;95650.53;5064279;28;20198;-46
2023/09/25 00:26:08;;;;;;;1999.90;999.90;;;;;;;8.51;100.00;95641.22;5063196;28;20513;-50
2023/09/25 00:28:33;;;;;;;1999.90;999.90;;;;;;;8.49;100.00;95638.06;5064266;28;20170;-46
2023/09/25 00:30:59;;;;;;;1999.90;999.90;;;;;;;8.49;100.00;95627.19;5064190;28;20186;-48
2023/09/25 00:33:24;;;;;;;1999.90;999.90;;;;;;;8.46;100.00;95617.09;5063671;28;20177;-47
2023/09/25 00:35:50;;;;;;;1999.90;999.90;;;;;;;8.44;100.00;95608.53;5063659;28;20177;-50
2023/09/25 00:38:15;;;;;;;1999.90;999.90;;;;;;;8.40;100.00;95596.84;5063586;28;20177;-47
2023/09/25 00:40:42;;;;;;;1999.90;999.90;;;;;;;8.38;100.00;95588.28;5064068;28;20265;-46
2023/09/25 00:43:11;;;;;;;1999.90;999.90;;;;;;;8.38;100.00;95576.63;5063578;28;20174;-47
2023/09/25 00:45:37;;;;;;;1999.90;999.90;;;;;;;8.39;100.00;95576.25;5063600;28;20212;-46
2023/09/25 00:48:03;;;;;;;1999.90;999.90;;;;;;;8.36;100.00;95568.84;5064001;28;20174;-49
2023/09/25 00:50:32;;;;;;;1999.90;999.90;;;;;;;8.36;100.00;95566.13;5063978;28;20175;-46
2023/09/25 00:53:07;;;;;;;1999.90;999.90;;;;;;;8.35;100.00;95550.97;5063800;28;20175;-50
2023/09/25 00:55:34;;;;;;;1999.90;999.90;;;;;;;8.37;100.00;95553.28;5064273;28;20166;-47
2023/09/25 00:58:00;;;;;;;1999.90;999.90;;;;;;;8.38;100.00;95546.72;5063571;28;20194;-47
2023/09/25 01:00:26;;;;;;;1999.90;999.90;;;;;;;8.37;100.00;95539.69;5063565;28;20273;-47
2023/09/25 01:02:51;;;;;;;1999.90;999.90;;;;;;;8.39;100.00;95527.28;5063411;28;20445;-49
2023/09/25 01:05:17;;;;;;;1999.90;999.90;;;;;;;8.38;100.00;95514.81;5063355;28;20387;-49
2023/09/25 01:07:42;;;;;;;1999.90;999.90;;;;;;;8.38;100.00;95509.38;5064100;28;20174;-50
2023/09/25 01:10:14;;;;;;;1999.90;999.90;;;;;;;8.36;100.00;95514.44;5063255;28;20177;-48
2023/09/25 01:12:46;;;;;;;1999.90;999.90;;;;;;;8.34;100.00;95500.44;5063119;28;20166;-46
2023/09/25 01:15:15;;;;;;;1999.90;999.90;;;;;;;8.31;100.00;95506.63;5063285;28;20166;-50
2023/09/25 01:17:41;;;;;;;1999.90;999.90;;;;;;;8.25;100.00;95510.91;5063327;28;20166;-48
2023/09/25 01:20:11;;;;;;;1999.90;999.90;;;;;;;8.21;100.00;95512.03;5063062;28;20200;-48
2023/09/25 01:22:37;;;;;;;1999.90;999.90;;;;;;;8.18;100.00;95502.72;5063159;28;20173;-48
2023/09/25 01:25:03;;;;;;;1999.90;999.90;;;;;;;8.20;100.00;95499.59;5063204;28;20229;-50
2023/09/25 01:27:28;;;;;;;1999.90;999.90;;;;;;;8.18;100.00;95497.25;5063039;28;20361;-48
2023/09/25 01:29:54;;;;;;;1999.90;999.90;;;;;;;8.17;100.00;95487.56;5063390;28;20166;-52
2023/09/25 01:32:19;;;;;;;1999.90;999.90;;;;;;;8.18;100.00;95480.94;5063012;28;20166;-47
2023/09/25 01:34:45;;;;;;;1999.90;999.90;;;;;;;8.19;100.00;95466.19;5062807;28;20165;-50
2023/09/25 01:37:10;;;;;;;1999.90;999.90;;;;;;;8.16;100.00;95464.22;5064800;28;20172;-50
2023/09/25 01:39:36;;;;;;;1999.90;999.90;;;;;;;8.14;100.00;95458.41;5066537;28;20193;-49
2023/09/25 01:42:03;;;;;;;1999.90;999.90;;;;;;;8.14;100.00;95452.97;5066301;28;20171;-48
2023/09/25 01:44:28;;;;;;;1999.90;999.90;;;;;;;8.12;100.00;95447.13;5066835;28;20483;-47
2023/09/25 01:46:54;;;;;;;1999.90;999.90;;;;;;;8.09;100.00;95439.72;5067007;28;20173;-47
2023/09/25 01:49:20;;;;;;;1999.90;999.90;;;;;;;8.06;100.00;95439.72;5066642;28;20166;-48
2023/09/25 01:51:45;;;;;;;1999.90;999.90;;;;;;;8.02;100.00;95425.34;5066582;28;20173;-48
2023/09/25 01:54:10;;;;;;;1999.90;999.90;;;;;;;7.94;100.00;95432.72;5066423;28;20201;-47
2023/09/25 01:56:36;;;;;;;1999.90;999.90;;;;;;;7.92;100.00;95420.66;5066228;28;20174;-48
2023/09/25 01:59:02;;;;;;;1999.90;999.90;;;;;;;7.91;100.00;95409.03;5066144;28;20196;-49
2023/09/25 02:01:27;;;;;;;1999.90;999.90;;;;;;;7.91;100.00;95400.88;5066144;28;20174;-49
2023/09/25 02:03:53;;;;;;;1999.90;999.90;;;;;;;7.89;100.00;95392.31;5065858;28;21275;-48
2023/09/25 02:06:18;;;;;;;1999.90;999.90;;;;;;;7.88;100.00;95374.47;5066664;28;20182;-48
2023/09/25 02:08:44;;;;;;;1999.90;999.90;;;;;;;7.90;100.00;95371.34;5066565;28;20378;-47
2023/09/25 02:11:09;;;;;;;1999.90;999.90;;;;;;;7.91;100.00;95370.19;5066165;28;20204;-46
2023/09/25 02:13:34;;;;;;;1999.90;999.90;;;;;;;7.85;100.00;95364.34;5066014;28;20241;-48
2023/09/25 02:15:59;;;;;;;1999.90;999.90;;;;;;;7.82;100.00;95361.59;5066363;28;20466;-49
2023/09/25 02:18:25;;;;;;;1999.90;999.90;;;;;;;7.81;100.00;95352.69;5065916;28;20170;-47
2023/09/25 02:20:50;;;;;;;1999.90;999.90;;;;;;;7.75;100.00;95354.22;5065656;28;20202;-48
2023/09/25 02:23:16;;;;;;;1999.90;999.90;;;;;;;7.74;100.00;95351.91;5065766;28;20177;-47
2023/09/25 02:25:41;;;;;;;1999.90;999.90;;;;;;;7.70;100.00;95351.13;5065754;28;20177;-46
2023/09/25 02:28:07;;;;;;;1999.90;999.90;;;;;;;7.67;100.00;95347.22;5065671;28;20209;-48
2023/09/25 02:30:32;;;;;;;1999.90;999.90;;;;;;;7.68;100.00;95335.19;5065727;28;20177;-50
2023/09/25 02:32:59;;;;;;;1999.90;999.90;;;;;;;7.72;100.00;95327.81;5066167;28;20398;-48
2023/09/25 02:35:25;;;;;;;1999.90;999.90;;;;;;;7.74;100.00;95335.59;5066093;28;20253;-48
2023/09/25 02:37:50;;;;;;;1999.90;999.90;;;;;;;7.74;100.00;95336.38;5066039;28;20177;-48
2023/09/25 02:40:16;;;;;;;1999.90;999.90;;;;;;;7.70;100.00;95334.81;5065604;28;20243;-47
2023/09/25 02:42:41;;;;;;;1999.90;999.90;;;;;;;7.67;100.00;95330.94;5065640;28;20231;-48
2023/09/25 02:45:08;;;;;;;1999.90;999.90;;;;;;;7.66;100.00;95317.72;5065361;28;20173;-48
2023/09/25 02:47:33;;;;;;;1999.90;999.90;;;;;;;7.65;100.00;95316.94;5065560;28;20174;-47
2023/09/25 02:49:59;;;;;;;1999.90;999.90;;;;;;;7.65;100.00;95316.19;5065749;28;20187;-47
2023/09/25 02:52:25;;;;;;;1999.90;999.90;;;;;;;7.63;100.00;95322.00;5065686;28;20281;-47
2023/09/25 02:54:50;;;;;;;1999.90;999.90;;;;;;;7.61;100.00;95318.88;5065252;28;20170;-48
2023/09/25 02:57:15;;;;;;;1999.90;999.90;;;;;;;7.58;100.00;95321.59;5065573;28;20190;-53
2023/09/25 02:59:41;;;;;;;1999.90;999.90;;;;;;;7.64;100.00;95309.94;5064917;28;20268;-48
2023/09/25 03:02:06;;;;;;;1999.90;999.90;;;;;;;7.65;100.00;95311.50;5065520;28;20170;-52
2023/09/25 03:04:31;;;;;;;1999.90;999.90;;;;;;;7.68;100.00;95313.44;5064704;28;20224;-46
2023/09/25 03:06:57;;;;;;;1999.90;999.90;;;;;;;7.67;100.00;95309.19;5064928;28;20169;-48
2023/09/25 03:09:22;;;;;;;1999.90;999.90;;;;;;;7.69;100.00;95311.53;5065088;28;20173;-47
2023/09/25 03:11:48;;;;;;;1999.90;999.90;;;;;;;7.69;100.00;95315.03;5064864;28;20248;-49
2023/09/25 03:14:13;;;;;;;1999.90;999.90;;;;;;;7.72;100.00;95316.94;5065295;28;20360;-50
2023/09/25 03:16:40;;;;;;;1999.90;999.90;;;;;;;7.75;100.00;95310.75;5065172;28;20174;-47
2023/09/25 03:19:06;;;;;;;1999.90;999.90;;;;;;;7.77;100.00;95308.44;5065163;28;20200;-50
2023/09/25 03:21:31;;;;;;;1999.90;999.90;;;;;;;7.78;100.00;95309.97;5064662;28;20170;-47
2023/09/25 03:23:56;;;;;;;1999.90;999.90;;;;;;;7.79;100.00;95306.09;5064671;28;20166;-46
2023/09/25 03:26:22;;;;;;;1999.90;999.90;;;;;;;7.80;100.00;95307.66;5064915;28;20173;-46
2023/09/25 03:28:48;;;;;;;1999.90;999.90;;;;;;;7.78;100.00;95309.97;5064539;28;20166;-47
2023/09/25 03:31:13;;;;;;;1999.90;999.90;;;;;;;7.77;100.00;95318.50;5064938;28;20176;-48
2023/09/25 03:33:40;;;;;;;1999.90;999.90;;;;;;;7.76;100.00;95315.00;5064465;28;20244;-46
2023/09/25 03:36:07;;;;;;;1999.90;999.90;;;;;;;7.77;100.00;95324.75;5064349;28;20161;-49
2023/09/25 03:38:33;;;;;;;1999.90;999.90;;;;;;;7.75;100.00;95324.34;5064351;28;20184;-50
2023/09/25 03:40:59;;;;;;;1999.90;999.90;;;;;;;7.74;100.00;95325.50;5064151;28;20194;-47
2023/09/25 03:43:25;;;;;;;1999.90;999.90;;;;;;;7.71;100.00;95326.28;5064805;28;20185;-50
2023/09/25 03:45:50;;;;;;;1999.90;999.90;;;;;;;7.69;100.00;95317.75;5064273;28;20169;-47
2023/09/25 03:48:16;;;;;;;1999.90;999.90;;;;;;;7.68;100.00;95316.16;5064197;28;20240;-47
2023/09/25 03:50:41;;;;;;;1999.90;999.90;;;;;;;7.68;100.00;95321.59;5064072;28;20170;-48
2023/09/25 03:53:06;;;;;;;1999.90;999.90;;;;;;;7.67;100.00;95320.06;5064204;28;20242;-48
2023/09/25 03:55:32;;;;;;;1999.90;999.90;;;;;;;7.70;100.00;95321.22;5064004;28;20481;-47
2023/09/25 03:57:58;;;;;;;1999.90;999.90;;;;;;;7.68;100.00;95316.16;5064076;28;20182;-46
2023/09/25 04:00:24;;;;;;;1999.90;999.90;;;;;;;7.67;100.00;95311.91;5063206;28;20525;-47
2023/09/25 04:02:50;;;;;;;1999.90;999.90;;;;;;;7.66;100.00;95306.84;5063938;28;20240;-49
2023/09/25 04:05:15;;;;;;;1999.90;999.90;;;;;;;7.61;100.00;95310.72;5063966;28;20217;-47
2023/09/25 04:07:41;;;;;;;1999.90;999.90;;;;;;;7.58;100.00;95308.75;5063768;28;20169;-46
2023/09/25 04:10:07;;;;;;;1999.90;999.90;;;;;;;7.54;100.00;95302.56;5064011;28;20237;-49
2023/09/25 04:12:36;;;;;;;1999.90;999.90;;;;;;;7.51;100.00;95300.63;5063830;28;20166;-47
2023/09/25 04:15:02;;;;;;;1999.90;999.90;;;;;;;7.46;100.00;95287.41;5064301;28;20161;-48
2023/09/25 04:17:28;;;;;;;1999.90;999.90;;;;;;;7.45;100.00;95280.44;5064235;28;20172;-48
2023/09/25 04:19:53;;;;;;;1999.90;999.90;;;;;;;7.49;100.00;95270.34;5063702;28;20470;-47
2023/09/25 04:22:20;;;;;;;1999.90;999.90;;;;;;;7.50;100.00;95274.59;5064219;28;20162;-46
2023/09/25 04:24:46;;;;;;;1999.90;999.90;;;;;;;7.52;100.00;95253.28;5063661;28;20486;-47
2023/09/25 04:27:11;;;;;;;1999.90;999.90;;;;;;;7.55;100.00;95252.50;5063278;28;20173;-47
2023/09/25 04:29:38;;;;;;;1999.90;999.90;;;;;;;7.57;100.00;95239.28;5063645;28;20169;-48
2023/09/25 04:32:03;;;;;;;1999.90;999.90;;;;;;;7.61;100.00;95233.88;5063599;28;20168;-46
2023/09/25 04:34:29;;;;;;;1999.90;999.90;;;;;;;7.66;100.00;95220.69;5063624;28;20169;-47
2023/09/25 04:36:54;;;;;;;1999.90;999.90;;;;;;;7.69;100.00;95219.91;5064133;28;20308;-45
2023/09/25 04:39:20;;;;;;;1999.90;999.90;;;;;;;7.77;100.00;95207.06;5064036;28;20162;-49
2023/09/25 04:41:47;;;;;;;1999.90;999.90;;;;;;;7.76;100.00;95205.53;5063466;28;20173;-46
2023/09/25 04:44:12;;;;;;;1999.90;999.90;;;;;;;7.82;100.00;95196.59;5064015;28;20162;-46
2023/09/25 04:46:37;;;;;;;1999.90;999.90;;;;;;;7.83;100.00;95195.41;5063379;28;20200;-49
2023/09/25 04:49:06;;;;;;;1999.90;999.90;;;;;;;7.85;100.00;95201.25;5063735;28;20166;-47
2023/09/25 04:51:32;;;;;;;1999.90;999.90;;;;;;;7.89;100.00;95196.59;5063441;28;20233;-46
2023/09/25 04:53:59;;;;;;;1999.90;999.90;;;;;;;7.88;100.00;95199.69;5063893;28;20244;-52
2023/09/25 04:56:25;;;;;;;1999.90;999.90;;;;;;;7.88;100.00;95188.81;5063438;28;20459;-46
2023/09/25 04:58:50;;;;;;;1999.90;999.90;;;;;;;7.92;100.00;95195.03;5063395;28;20185;-48
2023/09/25 05:01:15;;;;;;;1999.90;999.90;;;;;;;7.92;100.00;95190.38;5063526;28;20336;-48
2023/09/25 05:03:41;;;;;;;1999.90;999.90;;;;;;;7.94;100.00;95190.75;5063139;28;20189;-46
2023/09/25 05:06:08;;;;;;;1999.90;999.90;;;;;;;7.97;100.00;95187.25;5063766;28;20177;-51
2023/09/25 05:08:34;;;;;;;1999.90;999.90;;;;;;;7.95;100.00;95195.03;5063784;28;20182;-47
2023/09/25 05:10:59;;;;;;;1999.90;999.90;;;;;;;7.96;100.00;95191.13;5064682;28;20169;-47
2023/09/25 05:13:25;;;;;;;1999.90;999.90;;;;;;;8.01;100.00;95195.41;5067061;28;20174;-48
2023/09/25 05:15:50;;;;;;;1999.90;999.90;;;;;;;8.17;100.00;95195.75;5066909;28;20178;-47
2023/09/25 05:18:15;;;;;;;1999.90;999.90;;;;;;;8.27;100.00;95195.75;5066875;28;20373;-48
2023/09/25 05:20:41;;;;;;;1999.90;999.90;;;;;;;8.47;100.00;95196.09;5066760;28;20304;-49
2023/09/25 05:23:06;;;;;;;1999.90;999.90;;;;;;;8.78;100.00;95212.28;5066877;28;20170;-46
2023/09/25 05:25:32;;;;;;;1999.90;999.90;;;;;;;9.00;100.00;95232.03;5067289;28;20169;-48
2023/09/25 05:27:58;;;;;;;1999.90;999.90;;;;;;;9.25;100.00;95259.94;5067157;28;20321;-47
2023/09/25 05:30:23;;;;;;;1999.90;999.90;;;;;;;9.41;100.00;95296.44;5066621;28;20228;-49
2023/09/25 05:32:52;;;;;;;1999.90;999.90;;;;;;;9.54;100.00;95354.75;5066363;28;20243;-51
2023/09/25 05:35:19;;;;;;;1999.90;999.90;;;;;;;9.53;100.00;95396.81;5066854;28;20171;-48
2023/09/25 05:37:45;;;;;;;1999.90;999.90;;;;;;;9.45;100.00;95449.81;5066466;28;20170;-46
2023/09/25 05:40:12;;;;;;;1999.90;999.90;;;;;;;9.36;100.00;95473.97;5066409;28;20191;-48
2023/09/25 05:42:42;;;;;;;1999.90;999.90;;;;;;;9.58;100.00;95505.44;5066971;28;20171;-48
2023/09/25 05:45:11;;;;;;;1999.90;999.90;;;;;;;9.61;100.00;95540.09;5066741;28;20186;-49
2023/09/25 05:47:36;;;;;;;1999.90;999.90;;;;;;;9.80;100.00;95572.38;5066369;28;20253;-50
2023/09/25 05:50:06;;;;;;;1999.90;999.90;;;;;;;10.06;100.00;95618.34;5066241;28;20177;-53
2023/09/25 05:52:35;;;;;;;1999.90;999.90;;;;;;;10.84;100.00;95639.84;5066683;28;20186;-51
2023/09/25 05:55:02;;;;;;;1999.90;999.90;;;;;;;11.44;100.00;95708.63;5066061;28;20465;-48
2023/09/25 05:57:27;;;;;;;1999.90;999.90;;;;;;;11.74;100.00;95777.22;5066199;28;20193;-49
2023/09/25 05:59:52;;;;;;;1999.90;999.90;;;;;;;12.47;100.00;95814.22;5066035;28;20220;-47
2023/09/25 06:02:18;;;;;;;1999.90;999.90;;;;;;;12.99;100.00;95874.06;5066015;28;20162;-48
2023/09/25 06:04:43;;;;;;;1999.90;999.90;;;;;;;13.00;100.00;95914.00;5066020;28;20234;-50
2023/09/25 06:07:09;;;;;;;1999.90;999.90;;;;;;;13.58;100.00;95926.72;5066026;28;20197;-53
2023/09/25 06:09:35;;;;;;;1999.90;999.90;;;;;;;14.24;100.00;95941.63;5066579;28;20205;-51
2023/09/25 06:12:01;;;;;;;1999.90;999.90;;;;;;;14.21;100.00;95947.94;5065793;28;20177;-48
2023/09/25 06:14:29;;;;;;;1999.90;999.90;;;;;;;14.95;100.00;95947.66;5066094;28;20194;-50
2023/09/25 06:16:56;;;;;;;1999.90;999.90;;;;;;;15.68;100.00;95961.31;5065570;28;20158;-52
2023/09/25 06:19:22;;;;;;;1999.90;999.90;;;;;;;15.39;100.00;95968.53;5066192;28;20158;-52
2023/09/25 06:21:48;;;;;;;1999.90;999.90;;;;;;;15.68;100.00;95967.63;5066223;28;20466;-52
2023/09/25 06:24:14;;;;;;;1999.90;999.90;;;;;;;15.68;100.00;95964.88;5065300;28;20169;-53
2023/09/25 06:26:40;;;;;;;1999.90;999.90;;;;;;;16.05;100.00;95967.28;5065665;28;20197;-54
2023/09/25 06:29:09;;;;;;;1999.90;999.90;;;;;;;16.75;100.00;95973.28;5066118;28;20162;-52
2023/09/25 06:31:36;;;;;;;1999.90;999.90;;;;;;;17.55;100.00;95969.81;5066236;28;20174;-52
2023/09/25 06:34:03;;;;;;;1999.90;999.90;;;;;;;17.98;100.00;95981.25;5066089;28;20241;-50
2023/09/25 06:36:28;;;;;;;1999.90;999.90;;;;;;;18.08;100.00;95985.72;5065871;28;20166;-52
2023/09/25 06:38:53;;;;;;;1999.90;999.90;;;;;;;18.70;100.00;95982.38;5065549;28;20276;-49
2023/09/25 06:41:20;;;;;;;1999.90;999.90;;;;;;;19.02;100.00;95982.19;5065029;28;20196;-54
2023/09/25 06:43:46;;;;;;;1999.90;999.90;;;;;;;19.15;100.00;95991.25;5065270;28;20184;-51
2023/09/25 06:46:11;;;;;;;1999.90;999.90;;;;;;;18.79;100.00;95990.78;5064966;28;20182;-49
2023/09/25 06:48:36;;;;;;;1999.90;999.90;;;;;;;18.38;100.00;95993.59;5065250;28;20165;-49
2023/09/25 06:51:02;;;;;;;1999.90;999.90;;;;;;;19.04;100.00;95990.78;5065685;28;20255;-52
2023/09/25 06:53:27;;;;;;;1999.90;999.90;;;;;;;18.51;100.00;95988.88;5065572;28;20166;-53
2023/09/25 06:55:52;;;;;;;1999.90;999.90;;;;;;;18.52;100.00;95979.34;5065822;28;20190;-51
2023/09/25 06:58:18;;;;;;;1999.90;999.90;;;;;;;18.67;100.00;95977.72;5065296;28;20261;-50
2023/09/25 07:00:45;;;;;;;1999.90;999.90;;;;;;;19.19;100.00;95975.28;5064415;28;20204;-51
2023/09/25 07:03:10;;;;;;;1999.90;999.90;;;;;;;19.08;100.00;95974.84;5065328;28;20190;-51
2023/09/25 07:05:35;;;;;;;1999.90;999.90;;;;;;;19.07;100.00;95973.31;5064805;28;20201;-48
2023/09/25 07:08:01;;;;;;;1999.90;999.90;;;;;;;19.80;100.00;95978.41;5064777;28;20157;-47
2023/09/25 07:10:26;;;;;;;1999.90;999.90;;;;;;;18.87;100.00;95992.16;5064918;28;20212;-48
2023/09/25 07:12:52;;;;;;;1999.90;999.90;;;;;;;19.04;100.00;95985.25;5065162;28;20173;-48
2023/09/25 07:15:18;;;;;;;1999.90;999.90;;;;;;;19.00;100.00;95990.91;5064694;28;20161;-47
2023/09/25 07:17:44;;;;;;;1999.90;999.90;;;;;;;19.40;100.00;95985.72;5064431;28;20169;-48
2023/09/25 07:20:09;;;;;;;1999.90;999.90;;;;;;;19.73;100.00;95986.97;5064936;28;20273;-51
2023/09/25 07:22:36;;;;;;;1999.90;999.90;;;;;;;19.45;100.00;95987.94;5064541;28;20173;-49
2023/09/25 07:25:01;;;;;;;1999.90;999.90;;;;;;;19.32;100.00;95987.16;5065206;28;20195;-52
2023/09/25 07:27:28;;;;;;;1999.90;999.90;;;;;;;20.74;100.00;95993.63;5064349;28;20157;-51
2023/09/25 07:29:53;;;;;;;1999.90;999.90;;;;;;;21.06;100.00;95997.97;5064469;28;20215;-52
2023/09/25 07:32:19;;;;;;;1999.90;999.90;;;;;;;21.18;100.00;95995.09;5063998;28;20170;-46
2023/09/25 07:34:45;;;;;;;1999.90;999.90;;;;;;;20.25;100.00;96006.53;5063465;28;20170;-49
2023/09/25 07:37:12;;;;;;;1999.90;999.90;;;;;;;21.32;100.00;96005.66;5064309;28;20165;-48
2023/09/25 07:39:40;;;;;;;1999.90;999.90;;;;;;;20.98;100.00;96011.34;5064206;28;20197;-48
2023/09/25 07:42:09;;;;;;;1999.90;999.90;;;;;;;20.38;100.00;96001.72;5064646;28;20237;-50
2023/09/25 07:44:35;;;;;;;1999.90;999.90;;;;;;;20.50;100.00;96006.44;5064594;28;20190;-51
2023/09/25 07:47:10;;;;;;;1999.90;999.90;;;;;;;19.54;100.00;96007.41;5064147;28;20181;-49
2023/09/25 07:49:40;;;;;;;1999.90;999.90;;;;;;;20.33;100.00;96010.63;5064913;28;20181;-48
2023/09/25 07:52:15;;;;;;;1999.90;999.90;;;;;;;19.85;100.00;96022.19;5064008;28;20171;-56
2023/09/25 07:54:44;;;;;;;1999.90;999.90;;;;;;;20.76;100.00;96007.06;5064547;28;20165;-58
2023/09/25 07:57:11;;;;;;;1999.90;999.90;;;;;;;21.70;100.00;96008.84;5063945;28;20224;-56
2023/09/25 07:59:37;;;;;;;1999.90;999.90;;;;;;;21.89;100.00;96015.25;5064453;28;20185;-58
2023/09/25 08:02:02;;;;;;;1999.90;999.90;;;;;;;21.80;100.00;96018.78;5063943;28;20162;-56
2023/09/25 08:04:28;;;;;;;1999.90;999.90;;;;;;;21.60;100.00;96010.06;5063739;28;20244;-53
2023/09/25 08:06:53;;;;;;;1999.90;999.90;;;;;;;22.39;100.00;96012.66;5063809;28;20180;-52
2023/09/25 08:09:20;;;;;;;1999.90;999.90;;;;;;;21.59;100.00;96016.84;5063946;28;20284;-49
2023/09/25 08:11:45;;;;;;;1999.90;999.90;;;;;;;22.03;100.00;96015.41;5063796;28;20162;-54
2023/09/25 08:14:11;;;;;;;1999.90;999.90;;;;;;;21.90;100.00;96014.81;5064390;28;20233;-53
2023/09/25 08:16:38;;;;;;;1999.90;999.90;;;;;;;22.20;100.00;96022.25;5063843;28;20280;-53
2023/09/25 08:19:04;;;;;;;1999.90;999.90;;;;;;;21.62;100.00;96018.72;5063598;28;20162;-52
2023/09/25 08:21:30;;;;;;;1999.90;999.90;;;;;;;21.51;100.00;96017.59;5063589;28;20197;-52
2023/09/25 08:23:56;;;;;;;1999.90;999.90;;;;;;;22.44;100.00;96009.22;5063750;28;20212;-51
2023/09/25 08:26:21;;;;;;;1999.90;999.90;;;;;;;22.05;100.00;96018.53;5063650;28;20166;-51
2023/09/25 08:28:46;;;;;;;1999.90;999.90;;;;;;;21.36;100.00;96005.50;5063882;28;20192;-53
2023/09/25 08:31:12;;;;;;;1999.90;999.90;;;;;;;21.21;100.00;96007.31;5063807;28;20193;-53
2023/09/25 08:33:39;;;;;;;1999.90;999.90;;;;;;;21.19;100.00;96013.31;5064481;28;20239;-51
2023/09/25 08:36:09;;;;;;;1999.90;999.90;;;;;;;20.80;100.00;96011.22;5063599;28;20256;-53
2023/09/25 08:38:34;;;;;;;1999.90;999.90;;;;;;;20.57;100.00;96010.97;5064002;28;20161;-49
2023/09/25 08:41:00;;;;;;;1999.90;999.90;;;;;;;19.83;100.00;96008.00;5063857;28;20265;-49
2023/09/25 08:43:26;;;;;;;1999.90;999.90;;;;;;;21.14;100.00;96010.34;5063435;28;20169;-48
2023/09/25 08:45:52;;;;;;;1999.90;999.90;;;;;;;21.68;100.00;96021.66;5064278;28;20200;-48
2023/09/25 08:48:17;;;;;;;1999.90;999.90;;;;;;;21.45;100.00;96025.75;5068086;28;20162;-49
2023/09/25 08:50:44;;;;;;;1999.90;999.90;;;;;;;21.18;100.00;96009.00;5067418;28;20166;-51
2023/09/25 08:53:10;;;;;;;1999.90;999.90;;;;;;;21.72;100.00;96003.66;5067465;28;20162;-52
2023/09/25 08:55:35;;;;;;;1999.90;999.90;;;;;;;21.68;100.00;96011.31;5067323;28;20234;-49
2023/09/25 08:58:02;;;;;;;1999.90;999.90;;;;;;;21.82;100.00;96002.41;5067240;28;20192;-48
2023/09/25 09:00:29;;;;;;;1999.90;999.90;;;;;;;22.28;100.00;95995.63;5067719;28;20227;-50
2023/09/25 09:02:55;;;;;;;1999.90;999.90;;;;;;;22.57;100.00;96013.91;5067888;28;20162;-60
2023/09/25 09:05:20;;;;;;;1999.90;999.90;;;;;;;21.96;100.00;96010.16;5067154;28;20214;-63
2023/09/25 09:08:03;;;;;;;1999.90;999.90;;;;;;;22.16;100.00;96002.16;5066782;28;20415;-59
2023/09/25 09:10:31;;;;;;;1999.90;999.90;;;;;;;21.56;100.00;96009.44;5067168;28;20169;-52
2023/09/25 09:12:58;;;;;;;1999.90;999.90;;;;;;;21.28;100.00;96001.47;5067019;28;20241;-51
2023/09/25 09:15:26;;;;;;;1999.90;999.90;;;;;;;21.45;100.00;95992.41;5067638;28;20158;-48
2023/09/25 09:17:52;;;;;;;1999.90;999.90;;;;;;;22.05;100.00;96001.81;5067475;28;20249;-51
2023/09/25 09:20:17;;;;;;;1999.90;999.90;;;;;;;22.31;100.00;95986.38;5066965;28;20193;-51
2023/09/25 09:22:51;;;;;;;1999.90;999.90;;;;;;;22.76;100.00;95996.69;5066884;28;20158;-49
2023/09/25 09:25:17;;;;;;;1999.90;999.90;;;;;;;23.04;100.00;96000.94;5066576;28;20196;-50
2023/09/25 09:27:46;;;;;;;1999.90;999.90;;;;;;;22.38;100.00;96002.75;5066831;28;20162;-49
2023/09/25 09:30:23;;;;;;;1999.90;999.90;;;;;;;23.13;99.72;96005.72;5067344;28;20161;-50
2023/09/25 09:32:52;;;;;;;1999.90;999.90;;;;;;;22.91;100.00;96007.97;5067290;28;20154;-51
2023/09/25 09:35:25;;;;;;;1999.90;999.90;;;;;;;23.33;96.83;96014.34;5067102;28;20158;-49
2023/09/25 09:37:52;;;;;;;1999.90;999.90;;;;;;;21.43;100.00;96008.78;5067183;28;20205;-52
2023/09/25 09:40:19;;;;;;;1999.90;999.90;;;;;;;22.92;100.00;95995.56;5067050;28;20190;-50
2023/09/25 09:42:47;;;;;;;1999.90;999.90;;;;;;;23.95;99.89;95992.94;5066501;28;20167;-51
2023/09/25 09:45:13;;;;;;;1999.90;999.90;;;;;;;23.30;95.86;96004.16;5067025;28;20173;-50
2023/09/25 09:47:42;;;;;;;1999.90;999.90;;;;;;;23.74;97.66;95989.16;5066488;28;20174;-50
2023/09/25 09:50:10;;;;;;;1999.90;999.90;;;;;;;24.28;92.01;95982.44;5066565;28;20166;-51
2023/09/25 09:52:38;;;;;;;1999.90;999.90;;;;;;;23.32;92.40;95996.06;5066307;28;20169;-49
2023/09/25 09:55:05;;;;;;;1999.90;999.90;;;;;;;22.34;100.00;95993.78;5065831;28;20233;-53
2023/09/25 09:57:32;;;;;;;1999.90;999.90;;;;;;;22.91;100.00;95988.44;5064914;28;20209;-53
2023/09/25 09:59:57;;;;;;;1999.90;999.90;;;;;;;23.12;100.00;95979.84;5066621;28;20200;-51
2023/09/25 10:02:23;;;;;;;1999.90;999.90;;;;;;;23.68;95.59;95979.94;5066571;28;20166;-52
2023/09/25 10:04:49;;;;;;;1999.90;999.90;;;;;;;23.54;93.84;95979.84;5066260;28;20268;-51
2023/09/25 10:07:15;;;;;;;1999.90;999.90;;;;;;;23.94;93.02;95969.84;5066178;28;20174;-51
2023/09/25 10:09:57;;;;;;;1999.90;999.90;;;;;;;23.39;92.05;95973.41;5065984;28;20181;-51
2023/09/25 10:13:06;;;;;;;1999.90;999.90;;;;;;;23.36;98.87;95975.13;5066406;28;20159;-52
2023/09/25 10:15:31;;;;;;;1999.90;999.90;;;;;;;22.84;100.00;95977.63;4970267;28;20172;-55
2023/09/25 10:17:57;;;;;;;1999.90;999.90;;;;;;;22.85;98.56;95973.59;4970566;28;20228;-58
2023/09/25 10:20:40;;;;;;;1999.90;999.90;;;;;;;22.95;99.63;95970.34;5016282;28;20252;-59
2023/09/25 10:23:05;;;;;;;1999.90;999.90;;;;;;;22.99;100.00;95967.38;5066400;28;20184;-58
2023/09/25 10:25:43;;;;;;;1999.90;999.90;;;;;;;22.44;100.00;95959.13;5065706;28;20166;-59
2023/09/25 10:28:25;;;;;;;1999.90;999.90;;;;;;;22.23;100.00;95956.53;5066280;28;20229;-59
2023/09/25 10:30:51;;;;;;;1999.90;999.90;;;;;;;22.63;100.00;95953.53;5066126;28;20447;-58
2023/09/25 10:33:18;;;;;;;1999.90;999.90;;;;;;;22.67;100.00;95956.94;5065508;28;20189;-51
2023/09/25 10:35:48;;;;;;;1999.90;999.90;;;;;;;22.26;100.00;95956.34;5065551;28;20166;-48
2023/09/25 10:38:26;;;;;;;1999.90;999.90;;;;;;;22.21;100.00;95965.34;5065598;28;20166;-53
2023/09/25 10:40:54;;;;;;;1999.90;999.90;;;;;;;21.79;100.00;95956.06;5065831;28;20191;-55
2023/09/25 10:43:22;;;;;;;1999.90;999.90;;;;;;;22.07;100.00;95952.03;5065855;28;20231;-58
2023/09/25 10:45:48;;;;;;;1999.90;999.90;;;;;;;22.64;100.00;95949.50;5065339;28;20166;-59
2023/09/25 10:48:14;;;;;;;1999.90;999.90;;;;;;;22.31;100.00;95950.19;5065832;28;20162;-51
2023/09/25 10:50:43;;;;;;;1999.90;999.90;;;;;;;21.19;100.00;95957.75;5065310;28;20170;-58